sensor_id;sensor_type;location;lat;lon;timestamp;temperature;humidity
6538;DHT22;3302;52.508;13.454;2023-06-10T00:01:31;17.00;92.60
6538;DHT22;3302;52.508;13.454;2023-06-10T00:03:56;17.00;92.70
6538;DHT22;3302;52.508;13.454;2023-06-10T00:06:22;16.80;92.90
6538;DHT22;3302;52.508;13.454;2023-06-10T00:08:50;16.60;93.50
6538;DHT22;3302;52.508;13.454;2023-06-10T00:11:17;16.80;93.10
6538;DHT22;3302;52.508;13.454;2023-06-10T00:13:42;16.70;93.20
6538;DHT22;3302;52.508;13.454;2023-06-10T00:16:08;16.60;93.70
6538;DHT22;3302;52.508;13.454;2023-06-10T00:18:34;16.60;93.40
6538;DHT22;3302;52.508;13.454;2023-06-10T00:21:02;16.60;93.70
6538;DHT22;3302;52.508;13.454;2023-06-10T00:23:30;16.60;93.70
6538;DHT22;3302;52.508;13.454;2023-06-10T00:26:00;16.60;93.70
6538;DHT22;3302;52.508;13.454;2023-06-10T00:28:25;16.60;93.70
6538;DHT22;3302;52.508;13.454;2023-06-10T00:30:51;16.60;93.80
6538;DHT22;3302;52.508;13.454;2023-06-10T00:33:17;16.60;93.80
6538;DHT22;3302;52.508;13.454;2023-06-10T00:35:43;16.40;94.30
6538;DHT22;3302;52.508;13.454;2023-06-10T00:38:09;16.50;94.20
6538;DHT22;3302;52.508;13.454;2023-06-10T00:40:41;16.40;94.30
6538;DHT22;3302;52.508;13.454;2023-06-10T00:43:07;16.40;94.30
6538;DHT22;3302;52.508;13.454;2023-06-10T00:45:33;16.50;94.40
6538;DHT22;3302;52.508;13.454;2023-06-10T00:48:00;16.30;94.80
6538;DHT22;3302;52.508;13.454;2023-06-10T00:50:27;16.30;94.70
6538;DHT22;3302;52.508;13.454;2023-06-10T00:52:53;16.30;95.20
6538;DHT22;3302;52.508;13.454;2023-06-10T00:55:20;16.30;94.70
6538;DHT22;3302;52.508;13.454;2023-06-10T00:57:46;16.10;95.20
6538;DHT22;3302;52.508;13.454;2023-06-10T01:00:14;16.10;95.50
6538;DHT22;3302;52.508;13.454;2023-06-10T01:02:41;16.30;95.00
6538;DHT22;3302;52.508;13.454;2023-06-10T01:05:08;16.30;95.20
6538;DHT22;3302;52.508;13.454;2023-06-10T01:10:34;16.10;95.70
6538;DHT22;3302;52.508;13.454;2023-06-10T01:13:10;16.20;95.50
6538;DHT22;3302;52.508;13.454;2023-06-10T01:15:40;16.20;95.40
6538;DHT22;3302;52.508;13.454;2023-06-10T01:18:07;16.30;95.40
6538;DHT22;3302;52.508;13.454;2023-06-10T01:20:41;16.20;95.60
6538;DHT22;3302;52.508;13.454;2023-06-10T01:23:09;16.20;95.50
6538;DHT22;3302;52.508;13.454;2023-06-10T01:25:41;16.00;95.80
6538;DHT22;3302;52.508;13.454;2023-06-10T01:28:19;16.10;95.90
6538;DHT22;3302;52.508;13.454;2023-06-10T01:33:27;16.00;96.00
6538;DHT22;3302;52.508;13.454;2023-06-10T01:35:56;15.90;96.30
6538;DHT22;3302;52.508;13.454;2023-06-10T01:38:23;15.90;96.60
6538;DHT22;3302;52.508;13.454;2023-06-10T01:40:53;16.00;96.20
6538;DHT22;3302;52.508;13.454;2023-06-10T01:43:21;16.00;96.20
6538;DHT22;3302;52.508;13.454;2023-06-10T01:45:47;15.80;96.60
6538;DHT22;3302;52.508;13.454;2023-06-10T01:48:13;15.90;96.60
6538;DHT22;3302;52.508;13.454;2023-06-10T01:50:39;15.70;96.70
6538;DHT22;3302;52.508;13.454;2023-06-10T01:53:05;15.80;96.90
6538;DHT22;3302;52.508;13.454;2023-06-10T01:55:31;15.70;97.00
6538;DHT22;3302;52.508;13.454;2023-06-10T01:57:57;15.70;96.90
6538;DHT22;3302;52.508;13.454;2023-06-10T02:00:22;15.50;97.60
6538;DHT22;3302;52.508;13.454;2023-06-10T02:02:48;15.70;97.40
6538;DHT22;3302;52.508;13.454;2023-06-10T02:05:14;15.70;97.20
6538;DHT22;3302;52.508;13.454;2023-06-10T02:07:40;15.60;97.30
6538;DHT22;3302;52.508;13.454;2023-06-10T02:10:06;15.60;97.50
6538;DHT22;3302;52.508;13.454;2023-06-10T02:12:32;15.70;97.40
6538;DHT22;3302;52.508;13.454;2023-06-10T02:14:58;15.50;97.70
6538;DHT22;3302;52.508;13.454;2023-06-10T02:17:24;15.50;97.90
6538;DHT22;3302;52.508;13.454;2023-06-10T02:19:50;15.60;97.50
6538;DHT22;3302;52.508;13.454;2023-06-10T02:22:21;15.40;98.10
6538;DHT22;3302;52.508;13.454;2023-06-10T02:24:47;15.40;98.30
6538;DHT22;3302;52.508;13.454;2023-06-10T02:27:12;15.30;98.40
6538;DHT22;3302;52.508;13.454;2023-06-10T02:29:38;15.40;98.20
6538;DHT22;3302;52.508;13.454;2023-06-10T02:32:05;15.30;98.70
6538;DHT22;3302;52.508;13.454;2023-06-10T02:34:31;15.30;98.40
6538;DHT22;3302;52.508;13.454;2023-06-10T02:36:56;15.30;98.40
6538;DHT22;3302;52.508;13.454;2023-06-10T02:39:22;15.30;98.40
6538;DHT22;3302;52.508;13.454;2023-06-10T02:41:48;15.30;98.50
6538;DHT22;3302;52.508;13.454;2023-06-10T02:44:14;15.30;98.50
6538;DHT22;3302;52.508;13.454;2023-06-10T02:46:39;15.20;98.80
6538;DHT22;3302;52.508;13.454;2023-06-10T02:49:05;15.20;99.00
6538;DHT22;3302;52.508;13.454;2023-06-10T02:51:31;15.20;99.00
6538;DHT22;3302;52.508;13.454;2023-06-10T02:53:56;15.40;98.70
6538;DHT22;3302;52.508;13.454;2023-06-10T02:56:22;15.40;98.30
6538;DHT22;3302;52.508;13.454;2023-06-10T02:58:48;15.40;98.60
6538;DHT22;3302;52.508;13.454;2023-06-10T03:01:15;15.40;98.50
6538;DHT22;3302;52.508;13.454;2023-06-10T03:03:40;15.30;98.60
6538;DHT22;3302;52.508;13.454;2023-06-10T03:06:10;15.30;98.70
6538;DHT22;3302;52.508;13.454;2023-06-10T03:08:36;15.20;99.00
6538;DHT22;3302;52.508;13.454;2023-06-10T03:11:03;15.40;98.80
6538;DHT22;3302;52.508;13.454;2023-06-10T03:13:29;15.40;98.60
6538;DHT22;3302;52.508;13.454;2023-06-10T03:15:55;15.50;98.30
6538;DHT22;3302;52.508;13.454;2023-06-10T03:18:21;15.40;98.30
6538;DHT22;3302;52.508;13.454;2023-06-10T03:20:48;15.30;98.80
6538;DHT22;3302;52.508;13.454;2023-06-10T03:23:14;15.30;98.80
6538;DHT22;3302;52.508;13.454;2023-06-10T03:25:41;15.30;98.80
6538;DHT22;3302;52.508;13.454;2023-06-10T03:28:06;15.50;98.20
6538;DHT22;3302;52.508;13.454;2023-06-10T03:30:32;15.50;98.30
6538;DHT22;3302;52.508;13.454;2023-06-10T03:32:58;15.60;98.10
6538;DHT22;3302;52.508;13.454;2023-06-10T03:35:24;15.50;98.10
6538;DHT22;3302;52.508;13.454;2023-06-10T03:37:49;15.50;98.30
6538;DHT22;3302;52.508;13.454;2023-06-10T03:40:15;15.30;98.60
6538;DHT22;3302;52.508;13.454;2023-06-10T03:42:41;15.40;98.80
6538;DHT22;3302;52.508;13.454;2023-06-10T03:45:07;15.30;98.70
6538;DHT22;3302;52.508;13.454;2023-06-10T03:47:35;15.40;98.80
6538;DHT22;3302;52.508;13.454;2023-06-10T03:50:04;15.30;98.70
6538;DHT22;3302;52.508;13.454;2023-06-10T03:52:30;15.20;99.00
6538;DHT22;3302;52.508;13.454;2023-06-10T03:54:56;15.40;98.70
6538;DHT22;3302;52.508;13.454;2023-06-10T03:57:22;15.40;98.50
6538;DHT22;3302;52.508;13.454;2023-06-10T03:59:48;15.30;98.80
6538;DHT22;3302;52.508;13.454;2023-06-10T04:02:13;15.40;98.80
6538;DHT22;3302;52.508;13.454;2023-06-10T04:04:39;15.40;98.90
6538;DHT22;3302;52.508;13.454;2023-06-10T04:07:05;15.40;98.70
6538;DHT22;3302;52.508;13.454;2023-06-10T04:09:32;15.50;98.40
6538;DHT22;3302;52.508;13.454;2023-06-10T04:11:57;15.30;98.80
6538;DHT22;3302;52.508;13.454;2023-06-10T04:14:23;15.30;99.00
6538;DHT22;3302;52.508;13.454;2023-06-10T04:16:49;15.40;98.90
6538;DHT22;3302;52.508;13.454;2023-06-10T04:19:15;15.50;98.50
6538;DHT22;3302;52.508;13.454;2023-06-10T04:21:42;15.60;98.40
6538;DHT22;3302;52.508;13.454;2023-06-10T04:24:08;15.50;98.60
6538;DHT22;3302;52.508;13.454;2023-06-10T04:26:35;15.50;98.60
6538;DHT22;3302;52.508;13.454;2023-06-10T04:29:01;15.50;98.60
6538;DHT22;3302;52.508;13.454;2023-06-10T04:31:27;15.60;98.30
6538;DHT22;3302;52.508;13.454;2023-06-10T04:33:53;15.60;98.50
6538;DHT22;3302;52.508;13.454;2023-06-10T04:36:20;15.40;98.70
6538;DHT22;3302;52.508;13.454;2023-06-10T04:38:46;15.60;98.60
6538;DHT22;3302;52.508;13.454;2023-06-10T04:41:12;15.60;98.40
6538;DHT22;3302;52.508;13.454;2023-06-10T04:43:38;15.70;98.50
6538;DHT22;3302;52.508;13.454;2023-06-10T04:46:04;15.60;98.40
6538;DHT22;3302;52.508;13.454;2023-06-10T04:48:30;15.60;98.50
6538;DHT22;3302;52.508;13.454;2023-06-10T04:50:56;15.70;98.40
6538;DHT22;3302;52.508;13.454;2023-06-10T04:53:22;15.80;98.00
6538;DHT22;3302;52.508;13.454;2023-06-10T04:55:48;15.90;97.90
6538;DHT22;3302;52.508;13.454;2023-06-10T04:58:14;15.90;97.90
6538;DHT22;3302;52.508;13.454;2023-06-10T05:00:41;15.90;97.90
6538;DHT22;3302;52.508;13.454;2023-06-10T05:03:07;16.10;97.60
6538;DHT22;3302;52.508;13.454;2023-06-10T05:05:32;16.10;97.60
6538;DHT22;3302;52.508;13.454;2023-06-10T05:07:59;16.10;97.60
6538;DHT22;3302;52.508;13.454;2023-06-10T05:10:24;16.20;97.40
6538;DHT22;3302;52.508;13.454;2023-06-10T05:12:50;16.20;97.50
6538;DHT22;3302;52.508;13.454;2023-06-10T05:15:16;16.20;97.60
6538;DHT22;3302;52.508;13.454;2023-06-10T05:17:41;16.20;97.70
6538;DHT22;3302;52.508;13.454;2023-06-10T05:20:08;16.20;97.80
6538;DHT22;3302;52.508;13.454;2023-06-10T05:22:34;16.40;97.70
6538;DHT22;3302;52.508;13.454;2023-06-10T05:25:00;16.60;97.70
6538;DHT22;3302;52.508;13.454;2023-06-10T05:27:25;16.60;97.00
6538;DHT22;3302;52.508;13.454;2023-06-10T05:29:51;16.80;97.00
6538;DHT22;3302;52.508;13.454;2023-06-10T05:32:17;17.00;96.40
6538;DHT22;3302;52.508;13.454;2023-06-10T05:34:43;17.10;96.20
6538;DHT22;3302;52.508;13.454;2023-06-10T05:37:09;17.20;96.10
6538;DHT22;3302;52.508;13.454;2023-06-10T05:39:36;17.40;95.80
6538;DHT22;3302;52.508;13.454;2023-06-10T05:42:06;17.50;95.60
6538;DHT22;3302;52.508;13.454;2023-06-10T05:44:33;17.60;95.30
6538;DHT22;3302;52.508;13.454;2023-06-10T05:46:58;17.70;94.90
6538;DHT22;3302;52.508;13.454;2023-06-10T05:49:24;17.70;94.70
6538;DHT22;3302;52.508;13.454;2023-06-10T05:51:50;17.80;94.50
6538;DHT22;3302;52.508;13.454;2023-06-10T05:54:18;18.00;94.40
6538;DHT22;3302;52.508;13.454;2023-06-10T05:56:44;18.10;94.10
6538;DHT22;3302;52.508;13.454;2023-06-10T05:59:10;18.10;93.90
6538;DHT22;3302;52.508;13.454;2023-06-10T06:01:36;18.00;93.70
6538;DHT22;3302;52.508;13.454;2023-06-10T06:04:01;18.10;93.60
6538;DHT22;3302;52.508;13.454;2023-06-10T06:06:27;18.20;93.50
6538;DHT22;3302;52.508;13.454;2023-06-10T06:08:53;18.20;93.30
6538;DHT22;3302;52.508;13.454;2023-06-10T06:11:19;18.20;93.30
6538;DHT22;3302;52.508;13.454;2023-06-10T06:13:45;18.40;93.40
6538;DHT22;3302;52.508;13.454;2023-06-10T06:16:11;18.40;93.00
6538;DHT22;3302;52.508;13.454;2023-06-10T06:18:36;18.50;92.90
6538;DHT22;3302;52.508;13.454;2023-06-10T06:21:02;18.50;92.50
6538;DHT22;3302;52.508;13.454;2023-06-10T06:23:28;18.60;92.40
6538;DHT22;3302;52.508;13.454;2023-06-10T06:25:54;18.50;92.70
6538;DHT22;3302;52.508;13.454;2023-06-10T06:28:19;18.50;92.50
6538;DHT22;3302;52.508;13.454;2023-06-10T06:30:46;18.60;92.70
6538;DHT22;3302;52.508;13.454;2023-06-10T06:33:12;18.70;92.30
6538;DHT22;3302;52.508;13.454;2023-06-10T06:35:38;18.90;91.80
6538;DHT22;3302;52.508;13.454;2023-06-10T06:38:04;19.00;91.70
6538;DHT22;3302;52.508;13.454;2023-06-10T06:40:30;19.10;91.20
6538;DHT22;3302;52.508;13.454;2023-06-10T06:42:56;19.20;91.10
6538;DHT22;3302;52.508;13.454;2023-06-10T06:45:22;19.20;91.00
6538;DHT22;3302;52.508;13.454;2023-06-10T06:47:47;19.20;91.10
6538;DHT22;3302;52.508;13.454;2023-06-10T06:50:13;19.20;90.90
6538;DHT22;3302;52.508;13.454;2023-06-10T06:52:39;19.20;91.00
6538;DHT22;3302;52.508;13.454;2023-06-10T06:55:05;19.30;90.90
6538;DHT22;3302;52.508;13.454;2023-06-10T06:57:31;19.30;90.80
6538;DHT22;3302;52.508;13.454;2023-06-10T06:59:57;19.40;90.80
6538;DHT22;3302;52.508;13.454;2023-06-10T07:02:23;19.50;90.50
6538;DHT22;3302;52.508;13.454;2023-06-10T07:04:49;19.50;90.40
6538;DHT22;3302;52.508;13.454;2023-06-10T07:07:15;19.70;90.20
6538;DHT22;3302;52.508;13.454;2023-06-10T07:09:41;20.00;90.00
6538;DHT22;3302;52.508;13.454;2023-06-10T07:12:07;20.20;89.10
6538;DHT22;3302;52.508;13.454;2023-06-10T07:14:33;20.30;88.00
6538;DHT22;3302;52.508;13.454;2023-06-10T07:16:59;20.30;88.60
6538;DHT22;3302;52.508;13.454;2023-06-10T07:19:25;20.60;87.30
6538;DHT22;3302;52.508;13.454;2023-06-10T07:21:51;20.60;86.20
6538;DHT22;3302;52.508;13.454;2023-06-10T07:24:17;20.80;86.40
6538;DHT22;3302;52.508;13.454;2023-06-10T07:26:42;20.90;85.60
6538;DHT22;3302;52.508;13.454;2023-06-10T07:29:08;21.00;85.30
6538;DHT22;3302;52.508;13.454;2023-06-10T07:31:34;21.00;84.50
6538;DHT22;3302;52.508;13.454;2023-06-10T07:33:59;21.00;84.90
6538;DHT22;3302;52.508;13.454;2023-06-10T07:36:25;21.30;83.90
6538;DHT22;3302;52.508;13.454;2023-06-10T07:38:54;21.10;83.80
6538;DHT22;3302;52.508;13.454;2023-06-10T07:41:20;21.40;83.50
6538;DHT22;3302;52.508;13.454;2023-06-10T07:43:46;21.30;83.30
6538;DHT22;3302;52.508;13.454;2023-06-10T07:46:12;21.30;83.70
6538;DHT22;3302;52.508;13.454;2023-06-10T07:48:37;21.30;84.00
6538;DHT22;3302;52.508;13.454;2023-06-10T07:51:03;21.30;83.60
6538;DHT22;3302;52.508;13.454;2023-06-10T07:53:29;21.30;83.30
6538;DHT22;3302;52.508;13.454;2023-06-10T07:55:55;21.40;83.10
6538;DHT22;3302;52.508;13.454;2023-06-10T07:58:21;21.40;83.00
6538;DHT22;3302;52.508;13.454;2023-06-10T08:00:47;21.50;82.60
6538;DHT22;3302;52.508;13.454;2023-06-10T08:03:13;21.60;81.90
6538;DHT22;3302;52.508;13.454;2023-06-10T08:05:39;21.80;81.30
6538;DHT22;3302;52.508;13.454;2023-06-10T08:08:05;21.90;80.20
6538;DHT22;3302;52.508;13.454;2023-06-10T08:10:31;21.80;81.40
6538;DHT22;3302;52.508;13.454;2023-06-10T08:12:57;22.00;79.70
6538;DHT22;3302;52.508;13.454;2023-06-10T08:15:22;22.20;79.70
6538;DHT22;3302;52.508;13.454;2023-06-10T08:17:48;22.40;79.10
6538;DHT22;3302;52.508;13.454;2023-06-10T08:20:14;22.50;78.70
6538;DHT22;3302;52.508;13.454;2023-06-10T08:22:40;22.40;78.80
6538;DHT22;3302;52.508;13.454;2023-06-10T08:25:06;22.50;78.60
6538;DHT22;3302;52.508;13.454;2023-06-10T08:27:32;22.70;78.00
6538;DHT22;3302;52.508;13.454;2023-06-10T08:29:57;22.60;77.60
6538;DHT22;3302;52.508;13.454;2023-06-10T08:32:26;22.70;77.20
6538;DHT22;3302;52.508;13.454;2023-06-10T08:34:52;22.60;77.50
6538;DHT22;3302;52.508;13.454;2023-06-10T08:37:17;22.80;77.10
6538;DHT22;3302;52.508;13.454;2023-06-10T08:39:43;22.90;76.00
6538;DHT22;3302;52.508;13.454;2023-06-10T08:45:01;23.40;73.60
6538;DHT22;3302;52.508;13.454;2023-06-10T08:47:29;23.40;73.00
6538;DHT22;3302;52.508;13.454;2023-06-10T08:49:57;23.60;72.90
6538;DHT22;3302;52.508;13.454;2023-06-10T08:52:34;23.50;72.60
6538;DHT22;3302;52.508;13.454;2023-06-10T08:55:13;23.60;72.70
6538;DHT22;3302;52.508;13.454;2023-06-10T08:57:41;23.70;72.30
6538;DHT22;3302;52.508;13.454;2023-06-10T09:00:08;23.60;72.60
6538;DHT22;3302;52.508;13.454;2023-06-10T09:02:34;23.70;72.70
6538;DHT22;3302;52.508;13.454;2023-06-10T09:05:02;23.80;72.70
6538;DHT22;3302;52.508;13.454;2023-06-10T09:07:30;23.90;72.50
6538;DHT22;3302;52.508;13.454;2023-06-10T09:09:57;23.90;72.20
6538;DHT22;3302;52.508;13.454;2023-06-10T09:12:25;24.00;72.50
6538;DHT22;3302;52.508;13.454;2023-06-10T09:14:51;23.90;71.70
6538;DHT22;3302;52.508;13.454;2023-06-10T09:17:17;24.00;71.30
6538;DHT22;3302;52.508;13.454;2023-06-10T09:19:44;24.10;71.50
6538;DHT22;3302;52.508;13.454;2023-06-10T09:22:10;24.00;71.00
6538;DHT22;3302;52.508;13.454;2023-06-10T09:24:38;24.10;69.70
6538;DHT22;3302;52.508;13.454;2023-06-10T09:27:06;24.10;70.90
6538;DHT22;3302;52.508;13.454;2023-06-10T09:29:54;23.80;71.70
6538;DHT22;3302;52.508;13.454;2023-06-10T09:32:21;23.50;72.20
6538;DHT22;3302;52.508;13.454;2023-06-10T09:34:48;23.60;72.30
6538;DHT22;3302;52.508;13.454;2023-06-10T09:37:20;23.40;72.30
6538;DHT22;3302;52.508;13.454;2023-06-10T09:40:04;23.40;72.70
6538;DHT22;3302;52.508;13.454;2023-06-10T09:42:34;23.20;72.20
6538;DHT22;3302;52.508;13.454;2023-06-10T09:45:02;23.20;72.50
6538;DHT22;3302;52.508;13.454;2023-06-10T09:47:28;23.20;72.10
6538;DHT22;3302;52.508;13.454;2023-06-10T09:49:54;23.30;71.90
6538;DHT22;3302;52.508;13.454;2023-06-10T09:52:24;23.10;72.30
6538;DHT22;3302;52.508;13.454;2023-06-10T09:54:54;23.00;72.10
6538;DHT22;3302;52.508;13.454;2023-06-10T09:57:21;23.10;71.70
6538;DHT22;3302;52.508;13.454;2023-06-10T09:59:47;23.00;71.60
6538;DHT22;3302;52.508;13.454;2023-06-10T10:02:16;23.10;71.20
6538;DHT22;3302;52.508;13.454;2023-06-10T10:04:46;23.10;70.80
6538;DHT22;3302;52.508;13.454;2023-06-10T10:07:12;23.20;70.60
6538;DHT22;3302;52.508;13.454;2023-06-10T10:09:39;23.20;70.50
6538;DHT22;3302;52.508;13.454;2023-06-10T10:12:13;23.20;69.90
6538;DHT22;3302;52.508;13.454;2023-06-10T10:14:45;23.20;70.20
6538;DHT22;3302;52.508;13.454;2023-06-10T10:17:12;23.30;68.80
6538;DHT22;3302;52.508;13.454;2023-06-10T10:19:48;23.40;68.30
6538;DHT22;3302;52.508;13.454;2023-06-10T10:22:24;23.50;65.80
6538;DHT22;3302;52.508;13.454;2023-06-10T10:24:55;23.50;65.30
6538;DHT22;3302;52.508;13.454;2023-06-10T10:27:33;23.50;63.30
6538;DHT22;3302;52.508;13.454;2023-06-10T10:29:59;23.40;62.80
6538;DHT22;3302;52.508;13.454;2023-06-10T10:33:00;23.50;63.00
6538;DHT22;3302;52.508;13.454;2023-06-10T10:35:32;23.50;62.50
6538;DHT22;3302;52.508;13.454;2023-06-10T10:38:00;23.50;60.90
6538;DHT22;3302;52.508;13.454;2023-06-10T10:40:28;23.50;60.30
6538;DHT22;3302;52.508;13.454;2023-06-10T10:42:56;23.50;57.90
6538;DHT22;3302;52.508;13.454;2023-06-10T10:45:22;23.60;57.30
6538;DHT22;3302;52.508;13.454;2023-06-10T10:47:52;23.80;56.60
6538;DHT22;3302;52.508;13.454;2023-06-10T10:50:20;24.10;55.20
6538;DHT22;3302;52.508;13.454;2023-06-10T10:52:54;24.30;54.40
6538;DHT22;3302;52.508;13.454;2023-06-10T10:55:22;24.30;54.70
6538;DHT22;3302;52.508;13.454;2023-06-10T10:58:08;24.10;54.50
6538;DHT22;3302;52.508;13.454;2023-06-10T11:00:36;24.30;53.70
6538;DHT22;3302;52.508;13.454;2023-06-10T11:08:00;24.30;52.40
6538;DHT22;3302;52.508;13.454;2023-06-10T11:10:36;24.30;52.10
6538;DHT22;3302;52.508;13.454;2023-06-10T11:13:07;24.40;51.40
6538;DHT22;3302;52.508;13.454;2023-06-10T11:15:38;24.60;51.30
6538;DHT22;3302;52.508;13.454;2023-06-10T11:18:13;24.90;51.20
6538;DHT22;3302;52.508;13.454;2023-06-10T11:31:19;25.20;49.80
6538;DHT22;3302;52.508;13.454;2023-06-10T11:33:47;25.50;50.20
6538;DHT22;3302;52.508;13.454;2023-06-10T11:36:14;25.60;49.60
6538;DHT22;3302;52.508;13.454;2023-06-10T11:38:40;25.70;49.30
6538;DHT22;3302;52.508;13.454;2023-06-10T11:41:06;26.00;47.90
6538;DHT22;3302;52.508;13.454;2023-06-10T11:43:33;26.00;47.40
6538;DHT22;3302;52.508;13.454;2023-06-10T11:45:59;25.90;47.30
6538;DHT22;3302;52.508;13.454;2023-06-10T11:48:25;25.80;48.40
6538;DHT22;3302;52.508;13.454;2023-06-10T11:50:54;25.70;49.60
6538;DHT22;3302;52.508;13.454;2023-06-10T11:53:19;25.70;50.60
6538;DHT22;3302;52.508;13.454;2023-06-10T11:55:48;25.70;52.00
6538;DHT22;3302;52.508;13.454;2023-06-10T11:58:15;25.80;53.80
6538;DHT22;3302;52.508;13.454;2023-06-10T12:00:52;25.60;56.60
6538;DHT22;3302;52.508;13.454;2023-06-10T12:03:24;25.60;57.50
6538;DHT22;3302;52.508;13.454;2023-06-10T12:06:00;25.70;56.40
6538;DHT22;3302;52.508;13.454;2023-06-10T12:08:27;25.80;55.30
6538;DHT22;3302;52.508;13.454;2023-06-10T12:10:53;25.90;52.80
6538;DHT22;3302;52.508;13.454;2023-06-10T12:13:19;25.90;51.00
6538;DHT22;3302;52.508;13.454;2023-06-10T12:15:48;25.70;50.40
6538;DHT22;3302;52.508;13.454;2023-06-10T12:20:44;25.90;50.40
6538;DHT22;3302;52.508;13.454;2023-06-10T12:23:10;26.00;50.80
6538;DHT22;3302;52.508;13.454;2023-06-10T12:25:37;26.00;50.90
6538;DHT22;3302;52.508;13.454;2023-06-10T12:28:04;25.90;51.70
6538;DHT22;3302;52.508;13.454;2023-06-10T12:30:32;25.80;52.20
6538;DHT22;3302;52.508;13.454;2023-06-10T12:32:58;25.90;52.10
6538;DHT22;3302;52.508;13.454;2023-06-10T12:35:25;26.20;52.20
6538;DHT22;3302;52.508;13.454;2023-06-10T12:38:02;26.20;52.50
6538;DHT22;3302;52.508;13.454;2023-06-10T12:40:39;26.20;52.50
6538;DHT22;3302;52.508;13.454;2023-06-10T12:43:09;26.40;52.40
6538;DHT22;3302;52.508;13.454;2023-06-10T12:45:37;26.30;52.50
6538;DHT22;3302;52.508;13.454;2023-06-10T12:48:23;26.40;52.90
6538;DHT22;3302;52.508;13.454;2023-06-10T12:50:56;26.30;53.60
6538;DHT22;3302;52.508;13.454;2023-06-10T12:53:23;26.50;53.80
6538;DHT22;3302;52.508;13.454;2023-06-10T12:55:50;26.70;54.40
6538;DHT22;3302;52.508;13.454;2023-06-10T12:58:16;26.70;53.00
6538;DHT22;3302;52.508;13.454;2023-06-10T13:00:42;26.60;53.30
6538;DHT22;3302;52.508;13.454;2023-06-10T13:03:09;26.80;53.30
6538;DHT22;3302;52.508;13.454;2023-06-10T13:05:36;26.80;53.20
6538;DHT22;3302;52.508;13.454;2023-06-10T13:08:06;26.80;52.50
6538;DHT22;3302;52.508;13.454;2023-06-10T13:10:33;26.90;52.90
6538;DHT22;3302;52.508;13.454;2023-06-10T13:13:00;26.90;52.60
6538;DHT22;3302;52.508;13.454;2023-06-10T13:15:26;26.80;52.60
6538;DHT22;3302;52.508;13.454;2023-06-10T13:17:52;27.00;51.80
6538;DHT22;3302;52.508;13.454;2023-06-10T13:20:19;27.00;52.10
6538;DHT22;3302;52.508;13.454;2023-06-10T13:22:46;27.20;52.10
6538;DHT22;3302;52.508;13.454;2023-06-10T13:25:13;27.20;52.80
6538;DHT22;3302;52.508;13.454;2023-06-10T13:27:38;27.10;52.70
6538;DHT22;3302;52.508;13.454;2023-06-10T13:30:06;27.20;53.40
6538;DHT22;3302;52.508;13.454;2023-06-10T13:32:32;27.40;52.40
6538;DHT22;3302;52.508;13.454;2023-06-10T13:34:57;27.50;51.70
6538;DHT22;3302;52.508;13.454;2023-06-10T13:37:23;27.50;50.60
6538;DHT22;3302;52.508;13.454;2023-06-10T13:39:49;27.50;50.60
6538;DHT22;3302;52.508;13.454;2023-06-10T13:42:17;27.40;50.10
6538;DHT22;3302;52.508;13.454;2023-06-10T13:44:43;27.50;50.60
6538;DHT22;3302;52.508;13.454;2023-06-10T13:47:09;27.60;51.20
6538;DHT22;3302;52.508;13.454;2023-06-10T13:49:35;27.60;51.20
6538;DHT22;3302;52.508;13.454;2023-06-10T13:52:02;27.60;51.60
6538;DHT22;3302;52.508;13.454;2023-06-10T13:54:28;27.60;52.50
6538;DHT22;3302;52.508;13.454;2023-06-10T13:56:53;27.50;52.30
6538;DHT22;3302;52.508;13.454;2023-06-10T13:59:20;27.50;51.40
6538;DHT22;3302;52.508;13.454;2023-06-10T14:01:46;27.50;51.90
6538;DHT22;3302;52.508;13.454;2023-06-10T14:04:12;27.40;51.20
6538;DHT22;3302;52.508;13.454;2023-06-10T14:06:38;27.40;49.60
6538;DHT22;3302;52.508;13.454;2023-06-10T14:09:03;27.20;49.30
6538;DHT22;3302;52.508;13.454;2023-06-10T14:11:30;27.20;48.50
6538;DHT22;3302;52.508;13.454;2023-06-10T14:13:57;27.40;47.70
6538;DHT22;3302;52.508;13.454;2023-06-10T14:16:23;27.50;47.00
6538;DHT22;3302;52.508;13.454;2023-06-10T14:18:49;27.70;45.90
6538;DHT22;3302;52.508;13.454;2023-06-10T14:21:16;27.80;45.20
6538;DHT22;3302;52.508;13.454;2023-06-10T14:23:42;27.80;45.40
6538;DHT22;3302;52.508;13.454;2023-06-10T14:26:12;28.20;44.20
6538;DHT22;3302;52.508;13.454;2023-06-10T14:28:38;28.30;43.60
6538;DHT22;3302;52.508;13.454;2023-06-10T14:31:04;28.40;43.40
6538;DHT22;3302;52.508;13.454;2023-06-10T14:33:29;28.30;41.90
6538;DHT22;3302;52.508;13.454;2023-06-10T14:35:57;28.30;42.00
6538;DHT22;3302;52.508;13.454;2023-06-10T14:38:23;28.20;41.70
6538;DHT22;3302;52.508;13.454;2023-06-10T14:40:48;28.60;41.30
6538;DHT22;3302;52.508;13.454;2023-06-10T14:43:14;28.60;41.10
6538;DHT22;3302;52.508;13.454;2023-06-10T14:45:40;28.80;39.10
6538;DHT22;3302;52.508;13.454;2023-06-10T14:48:06;29.10;38.20
6538;DHT22;3302;52.508;13.454;2023-06-10T14:50:36;29.10;37.70
6538;DHT22;3302;52.508;13.454;2023-06-10T14:53:02;29.00;37.50
6538;DHT22;3302;52.508;13.454;2023-06-10T14:55:28;29.40;35.80
6538;DHT22;3302;52.508;13.454;2023-06-10T14:57:54;29.10;36.10
6538;DHT22;3302;52.508;13.454;2023-06-10T15:00:20;29.30;36.00
6538;DHT22;3302;52.508;13.454;2023-06-10T15:02:48;29.60;35.30
6538;DHT22;3302;52.508;13.454;2023-06-10T15:05:15;30.00;34.70
6538;DHT22;3302;52.508;13.454;2023-06-10T15:07:41;29.40;35.20
6538;DHT22;3302;52.508;13.454;2023-06-10T15:10:07;29.40;35.60
6538;DHT22;3302;52.508;13.454;2023-06-10T15:12:34;29.70;34.60
6538;DHT22;3302;52.508;13.454;2023-06-10T15:15:00;29.70;34.70
6538;DHT22;3302;52.508;13.454;2023-06-10T15:17:26;29.90;34.20
6538;DHT22;3302;52.508;13.454;2023-06-10T15:19:51;29.50;34.80
6538;DHT22;3302;52.508;13.454;2023-06-10T15:22:17;29.80;33.60
6538;DHT22;3302;52.508;13.454;2023-06-10T15:24:43;30.20;32.10
6538;DHT22;3302;52.508;13.454;2023-06-10T15:27:09;30.40;31.00
6538;DHT22;3302;52.508;13.454;2023-06-10T15:29:35;30.10;29.90
6538;DHT22;3302;52.508;13.454;2023-06-10T15:32:01;30.20;29.60
6538;DHT22;3302;52.508;13.454;2023-06-10T15:34:26;30.60;29.00
6538;DHT22;3302;52.508;13.454;2023-06-10T15:36:52;30.70;28.90
6538;DHT22;3302;52.508;13.454;2023-06-10T15:39:18;30.10;28.80
6538;DHT22;3302;52.508;13.454;2023-06-10T15:41:44;30.30;28.00
6538;DHT22;3302;52.508;13.454;2023-06-10T15:44:11;29.80;27.70
6538;DHT22;3302;52.508;13.454;2023-06-10T15:46:37;30.20;28.00
6538;DHT22;3302;52.508;13.454;2023-06-10T15:49:03;30.10;28.20
6538;DHT22;3302;52.508;13.454;2023-06-10T15:51:29;29.50;27.60
6538;DHT22;3302;52.508;13.454;2023-06-10T15:53:55;29.30;28.60
6538;DHT22;3302;52.508;13.454;2023-06-10T15:56:21;29.20;28.70
6538;DHT22;3302;52.508;13.454;2023-06-10T15:58:48;29.30;27.80
6538;DHT22;3302;52.508;13.454;2023-06-10T16:01:14;29.30;28.00
6538;DHT22;3302;52.508;13.454;2023-06-10T16:03:40;29.20;28.90
6538;DHT22;3302;52.508;13.454;2023-06-10T16:06:06;29.30;28.10
6538;DHT22;3302;52.508;13.454;2023-06-10T16:08:33;29.50;28.30
6538;DHT22;3302;52.508;13.454;2023-06-10T16:10:58;29.90;27.80